Accueil
METAR-TAF:

METAR-TAF

Aéroports :

Wittering, Angleterre

latitude: 52-37N, longitude: 000-28W, altitude: 84 m

Observation

Le bulletin a été fait il y a 1 heure et 18 minutes, à 21:50 UTC
Vent 16 kt de sud
Température 10°C
Humidité 82%
Pression 992 hPa
Visibilité 10 km ou plus

METAR: EGXT 222150Z AUTO 19016KT 9999 SCT017/// 10/07 Q0992

Heure: 23:08 (23:08 UTC)

Prévision

Le bulletin a été fait il y a 9 heures et 22 minutes, à 13:46 UTC
Prévision valable du 22 à 15 UTC au 22 à 18 UTC
Vent 18 kt de sud-ouest avec des rafales jusqu'à 28 kt
Visibilité 10 km ou plus
Nuages épars à une hauteur de 4000 ft
Probabilité 30% :
Temporairement
du 22 à 15 UTC au 22 à 18 UTC
Visibilité: 7000 m
averses de pluie

TAF: EGXT 221346Z 2215/2218 23018G28KT 9999 SCT040 PROB30 TEMPO 2215/2218 7000 SHRA

Observations et prévisions météorologiques de plus de 4000 aéroports (messages METAR et TAF).

Les stations disponibles sont représentées par des disques jaunes et rouges sur la carte.

Passer la souris dessus pour voir le nom de la station.

Cliquer dessus pour voir les observations et prévisions météorologiques.

Pour changer de carte: cliquez sur les boutons verts avec une croix noire pour zoomer, sur le bouton vert avec un tiret pour effectuer un zoom arrière, ou sur les flèches vertes pour les cartes adjacentes.


METAR-TAF: